sensor_id;sensor_type;location;lat;lon;timestamp;pressure;altitude;pressure_sealevel;temperature;humidity
43298;BME280;28892;55.640;37.532;2023-05-24T00:01:58;98769.25;;;17.48;65.53
43298;BME280;28892;55.640;37.532;2023-05-24T00:04:24;98765.09;;;17.40;64.44
43298;BME280;28892;55.640;37.532;2023-05-24T00:06:59;98773.69;;;17.42;64.45
43298;BME280;28892;55.640;37.532;2023-05-24T00:09:31;98769.06;;;17.38;64.67
43298;BME280;28892;55.640;37.532;2023-05-24T00:12:08;98777.09;;;17.38;65.47
43298;BME280;28892;55.640;37.532;2023-05-24T00:14:35;98767.00;;;17.28;64.83
43298;BME280;28892;55.640;37.532;2023-05-24T00:17:01;98775.25;;;17.38;64.53
43298;BME280;28892;55.640;37.532;2023-05-24T00:19:27;98756.28;;;17.28;64.29
43298;BME280;28892;55.640;37.532;2023-05-24T00:21:53;98765.91;;;17.41;63.80
43298;BME280;28892;55.640;37.532;2023-05-24T00:24:20;98763.25;;;17.41;64.39
43298;BME280;28892;55.640;37.532;2023-05-24T00:26:46;98757.19;;;17.34;64.46
43298;BME280;28892;55.640;37.532;2023-05-24T00:29:13;98756.72;;;17.37;64.60
43298;BME280;28892;55.640;37.532;2023-05-24T00:31:39;98756.25;;;17.40;64.01
43298;BME280;28892;55.640;37.532;2023-05-24T00:34:30;98754.34;;;17.52;64.43
43298;BME280;28892;55.640;37.532;2023-05-24T00:40:05;98743.31;;;17.37;64.75
43298;BME280;28892;55.640;37.532;2023-05-24T00:42:38;98735.53;;;17.23;65.08
43298;BME280;28892;55.640;37.532;2023-05-24T00:45:05;98738.22;;;17.23;64.64
43298;BME280;28892;55.640;37.532;2023-05-24T00:47:48;98734.34;;;17.31;65.49
43298;BME280;28892;55.640;37.532;2023-05-24T00:50:23;98737.16;;;17.24;64.84
43298;BME280;28892;55.640;37.532;2023-05-24T00:53:18;98738.84;;;17.42;64.54
43298;BME280;28892;55.640;37.532;2023-05-24T00:55:51;98732.03;;;17.23;64.68
43298;BME280;28892;55.640;37.532;2023-05-24T00:58:38;98738.66;;;17.32;64.90
43298;BME280;28892;55.640;37.532;2023-05-24T01:01:04;98725.19;;;17.15;64.66
43298;BME280;28892;55.640;37.532;2023-05-24T01:03:30;98728.78;;;17.21;64.61
43298;BME280;28892;55.640;37.532;2023-05-24T01:06:07;98725.06;;;17.22;64.45
43298;BME280;28892;55.640;37.532;2023-05-24T01:14:52;98720.00;;;17.37;64.07
43298;BME280;28892;55.640;37.532;2023-05-24T01:17:31;98717.94;;;17.27;64.16
43298;BME280;28892;55.640;37.532;2023-05-24T01:20:32;98700.38;;;17.20;64.29
43298;BME280;28892;55.640;37.532;2023-05-24T01:30:11;98710.22;;;17.31;64.35
43298;BME280;28892;55.640;37.532;2023-05-24T01:32:40;98710.66;;;17.69;62.67
43298;BME280;28892;55.640;37.532;2023-05-24T01:35:09;98714.66;;;17.37;63.47
43298;BME280;28892;55.640;37.532;2023-05-24T01:37:35;98702.00;;;17.21;63.47
43298;BME280;28892;55.640;37.532;2023-05-24T01:40:01;98712.25;;;17.24;64.07
43298;BME280;28892;55.640;37.532;2023-05-24T01:42:33;98708.66;;;17.18;64.13
43298;BME280;28892;55.640;37.532;2023-05-24T01:51:07;98712.84;;;17.14;63.92
43298;BME280;28892;55.640;37.532;2023-05-24T01:53:40;98708.88;;;17.16;63.93
43298;BME280;28892;55.640;37.532;2023-05-24T01:56:11;98712.84;;;17.14;64.03
43298;BME280;28892;55.640;37.532;2023-05-24T01:58:39;98706.50;;;17.03;64.21
43298;BME280;28892;55.640;37.532;2023-05-24T02:01:07;98713.09;;;17.12;64.24
43298;BME280;28892;55.640;37.532;2023-05-24T02:03:36;98701.91;;;17.15;64.45
43298;BME280;28892;55.640;37.532;2023-05-24T02:06:05;98694.81;;;17.09;64.41
43298;BME280;28892;55.640;37.532;2023-05-24T02:08:34;98694.81;;;17.09;64.07
43298;BME280;28892;55.640;37.532;2023-05-24T02:11:00;98709.22;;;17.20;63.60
43298;BME280;28892;55.640;37.532;2023-05-24T02:13:27;98698.31;;;17.10;64.23
43298;BME280;28892;55.640;37.532;2023-05-24T02:15:53;98698.06;;;17.11;64.10
43298;BME280;28892;55.640;37.532;2023-05-24T02:18:19;98702.00;;;17.21;63.57
43298;BME280;28892;55.640;37.532;2023-05-24T02:20:45;98697.13;;;17.17;63.69
43298;BME280;28892;55.640;37.532;2023-05-24T02:23:11;98687.44;;;17.16;63.94
43298;BME280;28892;55.640;37.532;2023-05-24T02:25:40;98693.25;;;17.25;63.68
43298;BME280;28892;55.640;37.532;2023-05-24T02:28:06;98687.53;;;17.22;63.27
43298;BME280;28892;55.640;37.532;2023-05-24T02:30:34;98695.19;;;17.30;63.09
43298;BME280;28892;55.640;37.532;2023-05-24T02:33:00;98684.47;;;17.30;63.02
43298;BME280;28892;55.640;37.532;2023-05-24T02:35:26;98692.28;;;17.31;62.86
43298;BME280;28892;55.640;37.532;2023-05-24T02:37:58;98686.38;;;17.29;63.12
43298;BME280;28892;55.640;37.532;2023-05-24T02:40:26;98690.34;;;17.27;62.49
43298;BME280;28892;55.640;37.532;2023-05-24T02:42:51;98695.53;;;17.34;62.68
43298;BME280;28892;55.640;37.532;2023-05-24T02:45:20;98687.91;;;17.42;62.64
43298;BME280;28892;55.640;37.532;2023-05-24T02:47:49;98688.03;;;17.48;62.34
43298;BME280;28892;55.640;37.532;2023-05-24T02:50:22;98691.03;;;17.51;62.53
43298;BME280;28892;55.640;37.532;2023-05-24T02:52:51;98685.00;;;17.44;62.60
43298;BME280;28892;55.640;37.532;2023-05-24T02:55:20;98681.28;;;17.45;62.30
43298;BME280;28892;55.640;37.532;2023-05-24T02:57:47;98678.97;;;17.37;62.28
43298;BME280;28892;55.640;37.532;2023-05-24T03:00:17;98683.06;;;17.39;62.93
43298;BME280;28892;55.640;37.532;2023-05-24T03:02:46;98674.31;;;17.32;63.18
43298;BME280;28892;55.640;37.532;2023-05-24T03:05:16;98688.22;;;17.29;63.33
43298;BME280;28892;55.640;37.532;2023-05-24T03:07:42;98681.94;;;17.23;63.27
43298;BME280;28892;55.640;37.532;2023-05-24T03:10:12;98683.75;;;17.35;63.34
43298;BME280;28892;55.640;37.532;2023-05-24T03:12:43;98683.44;;;17.31;63.16
43298;BME280;28892;55.640;37.532;2023-05-24T03:15:16;98676.81;;;17.22;63.49
43298;BME280;28892;55.640;37.532;2023-05-24T03:17:42;98690.19;;;17.34;63.31
43298;BME280;28892;55.640;37.532;2023-05-24T03:20:08;98686.78;;;17.38;63.25
43298;BME280;28892;55.640;37.532;2023-05-24T03:22:44;98672.00;;;17.36;63.13
43298;BME280;28892;55.640;37.532;2023-05-24T03:25:10;98665.72;;;17.30;62.80
43298;BME280;28892;55.640;37.532;2023-05-24T03:27:37;98674.66;;;17.36;62.92
43298;BME280;28892;55.640;37.532;2023-05-24T03:30:03;98682.66;;;17.48;62.96
43298;BME280;28892;55.640;37.532;2023-05-24T03:32:50;98673.50;;;17.60;62.66
43298;BME280;28892;55.640;37.532;2023-05-24T03:38:30;98666.13;;;17.68;62.39
43298;BME280;28892;55.640;37.532;2023-05-24T03:41:43;98674.09;;;17.80;62.02
43298;BME280;28892;55.640;37.532;2023-05-24T03:44:13;98666.06;;;17.80;62.21
43298;BME280;28892;55.640;37.532;2023-05-24T03:46:39;98662.38;;;17.69;62.16
43298;BME280;28892;55.640;37.532;2023-05-24T03:49:06;98667.00;;;17.73;62.08
43298;BME280;28892;55.640;37.532;2023-05-24T03:55:05;98649.41;;;17.78;61.63
43298;BME280;28892;55.640;37.532;2023-05-24T03:57:39;98658.16;;;17.73;61.78
43298;BME280;28892;55.640;37.532;2023-05-24T04:00:05;98650.84;;;17.68;62.07
43298;BME280;28892;55.640;37.532;2023-05-24T04:02:40;98647.00;;;17.64;61.81
43298;BME280;28892;55.640;37.532;2023-05-24T04:08:30;98659.69;;;17.86;61.94
43298;BME280;28892;55.640;37.532;2023-05-24T04:11:14;98648.72;;;17.70;61.51
43298;BME280;28892;55.640;37.532;2023-05-24T04:14:05;98657.69;;;17.93;61.90
43298;BME280;28892;55.640;37.532;2023-05-24T04:16:37;98651.03;;;17.79;61.58
43298;BME280;28892;55.640;37.532;2023-05-24T04:19:12;98657.50;;;17.83;61.29
43298;BME280;28892;55.640;37.532;2023-05-24T04:22:12;98667.03;;;18.08;61.31
43298;BME280;28892;55.640;37.532;2023-05-24T04:25:37;98666.72;;;18.04;61.13
43298;BME280;28892;55.640;37.532;2023-05-24T04:28:07;98652.38;;;17.98;60.92
43298;BME280;28892;55.640;37.532;2023-05-24T04:30:39;98665.00;;;18.15;60.35
43298;BME280;28892;55.640;37.532;2023-05-24T04:37:08;98648.75;;;18.61;59.11
43298;BME280;28892;55.640;37.532;2023-05-24T04:39:43;98652.34;;;18.72;59.08
43298;BME280;28892;55.640;37.532;2023-05-24T04:42:16;98645.38;;;18.93;58.42
43298;BME280;28892;55.640;37.532;2023-05-24T04:44:42;98642.53;;;19.05;57.87
43298;BME280;28892;55.640;37.532;2023-05-24T04:47:10;98652.81;;;19.36;57.00
43298;BME280;28892;55.640;37.532;2023-05-24T04:49:39;98648.22;;;19.64;56.81
43298;BME280;28892;55.640;37.532;2023-05-24T04:52:11;98643.38;;;19.93;55.47
43298;BME280;28892;55.640;37.532;2023-05-24T04:54:37;98646.25;;;20.19;54.98
43298;BME280;28892;55.640;37.532;2023-05-24T04:57:03;98664.03;;;20.26;55.04
43298;BME280;28892;55.640;37.532;2023-05-24T04:59:29;98648.13;;;20.19;55.08
43298;BME280;28892;55.640;37.532;2023-05-24T05:01:58;98667.44;;;20.48;54.60
43298;BME280;28892;55.640;37.532;2023-05-24T05:04:27;98664.22;;;20.57;54.17
43298;BME280;28892;55.640;37.532;2023-05-24T05:06:53;98658.06;;;20.61;53.17
43298;BME280;28892;55.640;37.532;2023-05-24T05:09:21;98670.69;;;20.50;53.12
43298;BME280;28892;55.640;37.532;2023-05-24T05:11:58;98678.78;;;20.56;53.99
43298;BME280;28892;55.640;37.532;2023-05-24T05:14:32;98681.94;;;20.42;54.07
43298;BME280;28892;55.640;37.532;2023-05-24T05:17:18;98682.31;;;20.61;54.13
43298;BME280;28892;55.640;37.532;2023-05-24T05:20:04;98676.06;;;20.50;53.38
43298;BME280;28892;55.640;37.532;2023-05-24T05:22:33;98666.75;;;20.26;54.13
43298;BME280;28892;55.640;37.532;2023-05-24T05:24:59;98668.94;;;20.29;53.96
43298;BME280;28892;55.640;37.532;2023-05-24T05:27:30;98677.50;;;20.26;54.13
43298;BME280;28892;55.640;37.532;2023-05-24T05:29:56;98680.72;;;20.22;54.24
43298;BME280;28892;55.640;37.532;2023-05-24T05:32:27;98672.94;;;20.26;55.10
43298;BME280;28892;55.640;37.532;2023-05-24T05:35:15;98676.41;;;20.21;54.78
43298;BME280;28892;55.640;37.532;2023-05-24T05:37:44;98666.16;;;20.18;55.49
43298;BME280;28892;55.640;37.532;2023-05-24T05:40:12;98667.59;;;20.31;54.62
43298;BME280;28892;55.640;37.532;2023-05-24T05:43:01;98670.31;;;20.36;55.11
43298;BME280;28892;55.640;37.532;2023-05-24T05:45:36;98682.47;;;20.44;55.81
43298;BME280;28892;55.640;37.532;2023-05-24T05:48:02;98673.03;;;20.42;55.31
43298;BME280;28892;55.640;37.532;2023-05-24T05:50:30;98662.59;;;20.50;54.31
43298;BME280;28892;55.640;37.532;2023-05-24T05:52:56;98671.00;;;20.64;53.08
43298;BME280;28892;55.640;37.532;2023-05-24T05:55:23;98668.28;;;20.59;53.87
43298;BME280;28892;55.640;37.532;2023-05-24T05:57:49;98666.44;;;20.65;54.22
43298;BME280;28892;55.640;37.532;2023-05-24T06:00:22;98662.16;;;20.74;53.99
43298;BME280;28892;55.640;37.532;2023-05-24T06:02:48;98651.09;;;20.71;53.66
43298;BME280;28892;55.640;37.532;2023-05-24T06:05:14;98661.16;;;20.86;53.00
43298;BME280;28892;55.640;37.532;2023-05-24T06:07:43;98652.56;;;20.94;52.68
43298;BME280;28892;55.640;37.532;2023-05-24T06:10:10;98662.16;;;20.79;53.06
43298;BME280;28892;55.640;37.532;2023-05-24T06:12:36;98668.59;;;20.68;53.01
43298;BME280;28892;55.640;37.532;2023-05-24T06:15:06;98660.44;;;20.52;53.86
43298;BME280;28892;55.640;37.532;2023-05-24T06:17:33;98653.44;;;20.57;53.86
43298;BME280;28892;55.640;37.532;2023-05-24T06:20:03;98654.03;;;20.64;53.60
43298;BME280;28892;55.640;37.532;2023-05-24T06:22:42;98657.53;;;20.64;53.50
43298;BME280;28892;55.640;37.532;2023-05-24T06:25:18;98649.28;;;20.82;52.45
43298;BME280;28892;55.640;37.532;2023-05-24T06:27:47;98659.44;;;20.69;52.08
43298;BME280;28892;55.640;37.532;2023-05-24T06:30:16;98656.38;;;20.45;53.14
43298;BME280;28892;55.640;37.532;2023-05-24T06:32:56;98650.66;;;20.36;52.93
43298;BME280;28892;55.640;37.532;2023-05-24T06:35:22;98647.13;;;20.30;52.83
43298;BME280;28892;55.640;37.532;2023-05-24T06:37:48;98660.56;;;20.30;54.07
43298;BME280;28892;55.640;37.532;2023-05-24T06:40:15;98656.84;;;20.36;53.47
43298;BME280;28892;55.640;37.532;2023-05-24T06:42:51;98658.22;;;20.39;53.36
43298;BME280;28892;55.640;37.532;2023-05-24T06:45:19;98657.94;;;20.41;54.13
43298;BME280;28892;55.640;37.532;2023-05-24T06:47:48;98657.50;;;20.54;53.42
43298;BME280;28892;55.640;37.532;2023-05-24T06:50:28;98651.31;;;20.59;53.52
43298;BME280;28892;55.640;37.532;2023-05-24T06:53:11;98659.63;;;20.52;53.56
43298;BME280;28892;55.640;37.532;2023-05-24T06:55:37;98652.91;;;20.49;53.44
43298;BME280;28892;55.640;37.532;2023-05-24T06:58:23;98654.06;;;20.74;52.83
43298;BME280;28892;55.640;37.532;2023-05-24T07:01:18;98660.25;;;20.75;53.56
43298;BME280;28892;55.640;37.532;2023-05-24T07:03:51;98655.41;;;20.72;54.12
43298;BME280;28892;55.640;37.532;2023-05-24T07:06:17;98663.78;;;20.80;52.50
43298;BME280;28892;55.640;37.532;2023-05-24T07:08:43;98664.75;;;21.17;51.97
43298;BME280;28892;55.640;37.532;2023-05-24T07:11:30;98666.72;;;21.38;51.70
43298;BME280;28892;55.640;37.532;2023-05-24T07:13:57;98665.34;;;21.30;50.98
43298;BME280;28892;55.640;37.532;2023-05-24T07:16:30;98658.06;;;21.35;52.84
43298;BME280;28892;55.640;37.532;2023-05-24T07:19:02;98669.88;;;21.19;51.90
43298;BME280;28892;55.640;37.532;2023-05-24T07:21:30;98663.59;;;20.92;53.28
43298;BME280;28892;55.640;37.532;2023-05-24T07:24:26;98669.16;;;20.70;53.15
43298;BME280;28892;55.640;37.532;2023-05-24T07:29:57;98668.09;;;20.71;53.45
43298;BME280;28892;55.640;37.532;2023-05-24T07:36:39;98667.09;;;20.88;54.01
43298;BME280;28892;55.640;37.532;2023-05-24T07:39:47;98663.78;;;20.70;54.80
43298;BME280;28892;55.640;37.532;2023-05-24T07:42:57;98668.88;;;20.72;54.36
43298;BME280;28892;55.640;37.532;2023-05-24T07:45:24;98665.28;;;20.50;54.33
43298;BME280;28892;55.640;37.532;2023-05-24T07:48:15;98669.53;;;20.41;55.59
43298;BME280;28892;55.640;37.532;2023-05-24T07:50:53;98671.41;;;20.35;54.87
43298;BME280;28892;55.640;37.532;2023-05-24T07:53:44;98681.63;;;20.38;55.64
43298;BME280;28892;55.640;37.532;2023-05-24T07:56:11;98674.63;;;19.94;56.53
43298;BME280;28892;55.640;37.532;2023-05-24T07:58:37;98692.31;;;19.90;56.76
43298;BME280;28892;55.640;37.532;2023-05-24T08:01:05;98676.13;;;19.85;56.62
43298;BME280;28892;55.640;37.532;2023-05-24T08:03:31;98690.13;;;19.87;56.94
43298;BME280;28892;55.640;37.532;2023-05-24T08:05:57;98678.53;;;19.81;57.01
43298;BME280;28892;55.640;37.532;2023-05-24T08:08:23;98675.81;;;19.81;56.99
43298;BME280;28892;55.640;37.532;2023-05-24T08:10:58;98685.47;;;19.77;57.12
43298;BME280;28892;55.640;37.532;2023-05-24T08:13:37;98675.44;;;19.67;57.33
43298;BME280;28892;55.640;37.532;2023-05-24T08:16:11;98679.50;;;19.70;56.58
43298;BME280;28892;55.640;37.532;2023-05-24T08:18:42;98685.41;;;19.67;57.09
43298;BME280;28892;55.640;37.532;2023-05-24T08:21:11;98678.88;;;19.63;56.54
43298;BME280;28892;55.640;37.532;2023-05-24T08:23:44;98680.28;;;19.71;57.24
43298;BME280;28892;55.640;37.532;2023-05-24T08:26:18;98678.09;;;19.62;56.73
43298;BME280;28892;55.640;37.532;2023-05-24T08:28:45;98678.47;;;19.49;56.77
43298;BME280;28892;55.640;37.532;2023-05-24T08:31:14;98685.03;;;19.58;57.01
43298;BME280;28892;55.640;37.532;2023-05-24T08:33:41;98680.19;;;19.60;56.95
43298;BME280;28892;55.640;37.532;2023-05-24T08:36:08;98685.94;;;19.69;56.71
43298;BME280;28892;55.640;37.532;2023-05-24T08:38:36;98675.50;;;19.73;56.66
43298;BME280;28892;55.640;37.532;2023-05-24T08:41:04;98677.22;;;19.89;56.32
43298;BME280;28892;55.640;37.532;2023-05-24T08:43:33;98690.88;;;20.10;56.09
43298;BME280;28892;55.640;37.532;2023-05-24T08:46:00;98684.41;;;20.06;56.54
43298;BME280;28892;55.640;37.532;2023-05-24T08:48:28;98683.34;;;20.12;55.71
43298;BME280;28892;55.640;37.532;2023-05-24T08:50:54;98690.72;;;20.22;55.64
43298;BME280;28892;55.640;37.532;2023-05-24T08:53:22;98675.13;;;20.29;55.97
43298;BME280;28892;55.640;37.532;2023-05-24T08:55:49;98675.00;;;20.57;56.19
43298;BME280;28892;55.640;37.532;2023-05-24T08:58:19;98681.09;;;20.90;55.53
43298;BME280;28892;55.640;37.532;2023-05-24T09:00:54;98681.00;;;21.33;54.47
43298;BME280;28892;55.640;37.532;2023-05-24T09:03:20;98682.66;;;21.55;54.19
43298;BME280;28892;55.640;37.532;2023-05-24T09:06:09;98695.38;;;22.06;52.48
43298;BME280;28892;55.640;37.532;2023-05-24T09:08:37;98680.75;;;21.50;53.04
43298;BME280;28892;55.640;37.532;2023-05-24T09:11:04;98685.31;;;21.39;53.15
43298;BME280;28892;55.640;37.532;2023-05-24T09:13:30;98692.63;;;21.59;53.91
43298;BME280;28892;55.640;37.532;2023-05-24T09:15:58;98686.75;;;21.83;51.59
43298;BME280;28892;55.640;37.532;2023-05-24T09:18:24;98679.13;;;21.64;51.93
43298;BME280;28892;55.640;37.532;2023-05-24T09:20:56;98680.53;;;21.83;52.72
43298;BME280;28892;55.640;37.532;2023-05-24T09:23:23;98682.97;;;21.89;52.83
43298;BME280;28892;55.640;37.532;2023-05-24T09:26:11;98683.22;;;22.19;51.72
43298;BME280;28892;55.640;37.532;2023-05-24T09:28:38;98690.25;;;22.20;51.80
43298;BME280;28892;55.640;37.532;2023-05-24T09:31:06;98685.38;;;22.27;51.34
43298;BME280;28892;55.640;37.532;2023-05-24T09:33:33;98686.19;;;22.17;51.64
43298;BME280;28892;55.640;37.532;2023-05-24T09:36:27;98689.91;;;22.53;50.93
43298;BME280;28892;55.640;37.532;2023-05-24T09:39:23;98681.88;;;22.01;51.88
43298;BME280;28892;55.640;37.532;2023-05-24T09:41:51;98696.44;;;22.36;50.55
43298;BME280;28892;55.640;37.532;2023-05-24T09:44:34;98688.56;;;22.55;50.34
43298;BME280;28892;55.640;37.532;2023-05-24T09:47:01;98685.88;;;22.35;49.48
43298;BME280;28892;55.640;37.532;2023-05-24T09:53:44;98701.28;;;22.44;49.56
43298;BME280;28892;55.640;37.532;2023-05-24T09:56:26;98697.53;;;22.09;50.16
43298;BME280;28892;55.640;37.532;2023-05-24T10:05:22;98697.47;;;22.66;50.69
43298;BME280;28892;55.640;37.532;2023-05-24T10:08:20;98692.63;;;22.37;50.83
43298;BME280;28892;55.640;37.532;2023-05-24T10:10:52;98693.50;;;22.17;51.17
43298;BME280;28892;55.640;37.532;2023-05-24T10:13:29;98695.66;;;21.84;51.31
43298;BME280;28892;55.640;37.532;2023-05-24T10:15:59;98699.44;;;21.88;50.88
43298;BME280;28892;55.640;37.532;2023-05-24T10:18:25;98703.19;;;21.71;51.33
43298;BME280;28892;55.640;37.532;2023-05-24T10:21:35;98704.00;;;21.72;50.76
43298;BME280;28892;55.640;37.532;2023-05-24T10:24:32;98707.72;;;21.50;51.54
43298;BME280;28892;55.640;37.532;2023-05-24T10:33:41;98706.03;;;21.23;50.52
43298;BME280;28892;55.640;37.532;2023-05-24T10:36:21;98720.91;;;21.36;51.83
43298;BME280;28892;55.640;37.532;2023-05-24T10:39:21;98721.94;;;21.25;51.66
43298;BME280;28892;55.640;37.532;2023-05-24T10:42:13;98714.66;;;21.20;52.35
43298;BME280;28892;55.640;37.532;2023-05-24T10:44:39;98720.09;;;21.30;52.02
43298;BME280;28892;55.640;37.532;2023-05-24T10:49:55;98723.38;;;21.53;51.12
43298;BME280;28892;55.640;37.532;2023-05-24T10:52:36;98722.56;;;21.53;51.78
43298;BME280;28892;55.640;37.532;2023-05-24T10:55:06;98727.75;;;21.75;51.46
43298;BME280;28892;55.640;37.532;2023-05-24T10:58:03;98726.44;;;21.98;50.74
43298;BME280;28892;55.640;37.532;2023-05-24T11:00:33;98734.81;;;22.02;50.66
43298;BME280;28892;55.640;37.532;2023-05-24T11:03:26;98727.53;;;22.08;50.87
43298;BME280;28892;55.640;37.532;2023-05-24T11:06:14;98724.81;;;22.08;49.98
43298;BME280;28892;55.640;37.532;2023-05-24T11:08:47;98735.34;;;22.25;49.88
43298;BME280;28892;55.640;37.532;2023-05-24T11:11:16;98721.53;;;22.47;49.52
43298;BME280;28892;55.640;37.532;2023-05-24T11:13:59;98732.31;;;22.47;50.47
43298;BME280;28892;55.640;37.532;2023-05-24T11:16:37;98732.34;;;22.63;50.08
43298;BME280;28892;55.640;37.532;2023-05-24T11:21:45;98728.22;;;22.81;48.71
43298;BME280;28892;55.640;37.532;2023-05-24T11:24:56;98737.47;;;22.59;49.18
43298;BME280;28892;55.640;37.532;2023-05-24T11:27:57;98730.47;;;22.22;49.91
43298;BME280;28892;55.640;37.532;2023-05-24T11:30:26;98742.34;;;22.62;49.68
43298;BME280;28892;55.640;37.532;2023-05-24T11:33:24;98735.53;;;22.85;48.22
43298;BME280;28892;55.640;37.532;2023-05-24T11:36:01;98729.47;;;23.14;47.50
43298;BME280;28892;55.640;37.532;2023-05-24T11:38:35;98737.69;;;22.78;47.91
43298;BME280;28892;55.640;37.532;2023-05-24T11:41:02;98738.03;;;22.25;48.67
43298;BME280;28892;55.640;37.532;2023-05-24T11:43:30;98738.84;;;22.30;48.40
43298;BME280;28892;55.640;37.532;2023-05-24T11:45:56;98735.34;;;22.25;49.01
43298;BME280;28892;55.640;37.532;2023-05-24T11:48:25;98742.91;;;22.28;48.98
43298;BME280;28892;55.640;37.532;2023-05-24T11:50:52;98731.28;;;22.32;49.56
43298;BME280;28892;55.640;37.532;2023-05-24T11:53:18;98742.34;;;22.31;49.46
43298;BME280;28892;55.640;37.532;2023-05-24T11:55:45;98727.78;;;22.16;50.48
43298;BME280;28892;55.640;37.532;2023-05-24T11:58:41;98749.38;;;22.27;50.69
43298;BME280;28892;55.640;37.532;2023-05-24T12:01:27;98735.59;;;21.92;51.03
43298;BME280;28892;55.640;37.532;2023-05-24T12:03:53;98739.59;;;21.58;51.46
43298;BME280;28892;55.640;37.532;2023-05-24T12:06:20;98733.16;;;21.70;52.14
43298;BME280;28892;55.640;37.532;2023-05-24T12:08:47;98733.97;;;21.81;50.89
43298;BME280;28892;55.640;37.532;2023-05-24T12:11:16;98733.16;;;21.70;51.73
43298;BME280;28892;55.640;37.532;2023-05-24T12:16:35;98726.69;;;21.81;51.54
43298;BME280;28892;55.640;37.532;2023-05-24T12:19:01;98731.56;;;21.84;51.67
43298;BME280;28892;55.640;37.532;2023-05-24T12:21:56;98728.84;;;21.95;50.76
43298;BME280;28892;55.640;37.532;2023-05-24T12:24:23;98729.84;;;21.47;51.88
43298;BME280;28892;55.640;37.532;2023-05-24T12:26:57;98723.63;;;21.46;52.09
43298;BME280;28892;55.640;37.532;2023-05-24T12:29:31;98726.63;;;21.60;51.72
43298;BME280;28892;55.640;37.532;2023-05-24T12:32:23;98725.28;;;21.58;51.83
43298;BME280;28892;55.640;37.532;2023-05-24T12:34:49;98722.56;;;21.53;51.61
43298;BME280;28892;55.640;37.532;2023-05-24T12:37:17;98725.28;;;21.63;50.77
43298;BME280;28892;55.640;37.532;2023-05-24T12:39:46;98724.19;;;21.59;50.95
43298;BME280;28892;55.640;37.532;2023-05-24T12:42:15;98714.19;;;21.54;51.54
43298;BME280;28892;55.640;37.532;2023-05-24T12:44:48;98714.22;;;21.59;50.76
43298;BME280;28892;55.640;37.532;2023-05-24T12:47:17;98703.66;;;21.47;51.61
43298;BME280;28892;55.640;37.532;2023-05-24T12:49:45;98705.84;;;21.56;51.12
43298;BME280;28892;55.640;37.532;2023-05-24T12:55:09;98712.06;;;21.61;51.68
43298;BME280;28892;55.640;37.532;2023-05-24T12:58:06;98718.59;;;21.81;51.90
43298;BME280;28892;55.640;37.532;2023-05-24T13:01:07;98716.63;;;21.56;51.35
43298;BME280;28892;55.640;37.532;2023-05-24T13:03:50;98711.22;;;21.45;52.04
43298;BME280;28892;55.640;37.532;2023-05-24T13:07:01;98723.97;;;21.76;51.98
43298;BME280;28892;55.640;37.532;2023-05-24T13:10:06;98727.97;;;21.58;52.24
43298;BME280;28892;55.640;37.532;2023-05-24T13:12:58;98727.75;;;21.70;52.34
43298;BME280;28892;55.640;37.532;2023-05-24T13:15:50;98731.28;;;21.86;51.63
43298;BME280;28892;55.640;37.532;2023-05-24T13:20:02;98738.03;;;22.25;51.48
43298;BME280;28892;55.640;37.532;2023-05-24T13:23:07;98722.38;;;22.06;50.50
43298;BME280;28892;55.640;37.532;2023-05-24T13:25:47;98739.41;;;22.07;50.49
43298;BME280;28892;55.640;37.532;2023-05-24T13:28:29;98735.63;;;22.08;50.01
43298;BME280;28892;55.640;37.532;2023-05-24T13:31:24;98730.72;;;22.04;48.67
43298;BME280;28892;55.640;37.532;2023-05-24T13:37:38;98738.84;;;22.20;48.94
43298;BME280;28892;55.640;37.532;2023-05-24T13:40:08;98729.94;;;21.99;48.87
43298;BME280;28892;55.640;37.532;2023-05-24T13:42:34;98732.09;;;22.07;49.27
43298;BME280;28892;55.640;37.532;2023-05-24T13:45:03;98732.91;;;22.02;48.83
43298;BME280;28892;55.640;37.532;2023-05-24T13:47:32;98724.53;;;21.94;49.52
43298;BME280;28892;55.640;37.532;2023-05-24T13:50:16;98736.97;;;21.89;49.42
43298;BME280;28892;55.640;37.532;2023-05-24T13:52:51;98731.53;;;22.00;50.04
43298;BME280;28892;55.640;37.532;2023-05-24T13:55:22;98730.75;;;21.89;50.23
43298;BME280;28892;55.640;37.532;2023-05-24T13:58:02;98721.31;;;21.91;49.92
43298;BME280;28892;55.640;37.532;2023-05-24T14:00:32;98731.28;;;21.81;50.10
43298;BME280;28892;55.640;37.532;2023-05-24T14:03:00;98727.22;;;21.68;50.41
43298;BME280;28892;55.640;37.532;2023-05-24T14:05:26;98727.19;;;21.57;51.41
43298;BME280;28892;55.640;37.532;2023-05-24T14:07:59;98731.50;;;21.63;51.32
43298;BME280;28892;55.640;37.532;2023-05-24T14:10:35;98734.25;;;21.69;51.40
43298;BME280;28892;55.640;37.532;2023-05-24T14:13:05;98723.19;;;21.75;51.46
43298;BME280;28892;55.640;37.532;2023-05-24T14:15:34;98731.53;;;21.74;51.40
43298;BME280;28892;55.640;37.532;2023-05-24T14:18:03;98726.69;;;21.71;51.96
43298;BME280;28892;55.640;37.532;2023-05-24T14:20:41;98736.69;;;21.86;51.94
43298;BME280;28892;55.640;37.532;2023-05-24T14:23:20;98730.75;;;21.84;51.73
43298;BME280;28892;55.640;37.532;2023-05-24T14:25:57;98738.56;;;21.85;51.91
43298;BME280;28892;55.640;37.532;2023-05-24T14:28:30;98727.44;;;21.66;51.56
43298;BME280;28892;55.640;37.532;2023-05-24T14:30:58;98720.47;;;21.70;51.92
43298;BME280;28892;55.640;37.532;2023-05-24T14:33:45;98728.78;;;21.63;52.23
43298;BME280;28892;55.640;37.532;2023-05-24T14:36:28;98740.66;;;21.62;53.08
43298;BME280;28892;55.640;37.532;2023-05-24T14:39:22;98733.94;;;21.65;52.18
43298;BME280;28892;55.640;37.532;2023-05-24T14:41:54;98728.78;;;21.48;53.11
43298;BME280;28892;55.640;37.532;2023-05-24T14:44:44;98739.28;;;21.49;53.00